Airfield :
LOGIN :

Register | Disclaimer

   EN    FR    IT 

 










Legend :    VFR   Marginal VFR   IFR   Intensive IFR   Very Intensive IFR
Visi :
Ceiling :
>= 8 km
>= 3000ft
5 to 8 km
1000 to 3000 ft
1500m to 5 km
500 to 1000 ft
800 to 1500m
200 to 500 ft
< 800m
< 200 ft
Symbols :   Thunderstorms  Fog  Heavy snow  Heavy precipitations  Wind > 20 kt
SIGMETs :     Misc.  Thunderstorms  Icing  Turbulence  Mountain Waves  Volcanic Ashes






- Airport Elevation : 257 ft
- IATA code : MAN


EGCC - Manchester

CURRENT METAR :
  • 021620Z AUTO 29007KT 9999 SCT024/// BKN042/// BKN048/// //////CB 16/12 Q1013

EXPIRED METARs :
  • 021550Z AUTO 27006KT 9999 -RA FEW019 SCT027 BKN037 16/12 Q1012
  • 021520Z AUTO 31005KT 280V360 9999 SCT018 BKN028 17/13 Q1012
  • 021450Z AUTO 26004KT 180V330 9999 BKN017 BKN029 17/13 Q1012 TEMPO SHRA
  • 021420Z AUTO 30004KT 260V320 9999 BKN018 BKN029 16/13 Q1012 TEMPO SHRA
  • 021350Z AUTO 28006KT 240V320 9999 BKN017 OVC041 16/13 Q1012 TEMPO SHRA
  • 021320Z AUTO VRB03KT 9999 SCT016 SCT025 OVC034 16/13 Q1012 TEMPO SHRA

TAF TAF EGCC
Valid from the 02 at 12:00 until the 03 at 18:00 UTC


021103Z 0212/0318 05004KT 9999 BKN008
BECMG 0212/0215 BKN030
PROB30
TEMPO 0212/0216 7000 SHRA
BECMG 0306/0309 20010KT
TEMPO 0306/0318 7000 RA BKN012
PROB30
TEMPO 0312/0318 20015G25KT
ATIS : +44 161 499 2324



MET'MAP, your aeronautical weather chart ! - Copyright ORBIFLY December 2007 - Disclaimer

ORBIFLY MET'MAP TEAM :

Programming & Development : Alexandra Zaïnal
Concept & original design : Baudouin d'Aumeries
Assistance for programming : Marc-Olivier Méhu
Technical & hardware support : Manuel Goepfert

Contact : metmap@orbifly.com




SOURCES & CREDITS :

   NOAA